sensor_id;sensor_type;location;lat;lon;timestamp;P1;durP1;ratioP1;P2;durP2;ratioP2
62268;SDS011;56517;51.634;5.566;2023-06-22T00:00:44;13.07;;;8.68;;
62268;SDS011;56517;51.634;5.566;2023-06-22T00:02:05;12.00;;;8.88;;
62268;SDS011;56517;51.634;5.566;2023-06-22T00:03:26;17.52;;;9.43;;
62268;SDS011;56517;51.634;5.566;2023-06-22T00:04:47;13.02;;;8.35;;
62268;SDS011;56517;51.634;5.566;2023-06-22T00:06:08;12.07;;;8.05;;
62268;SDS011;56517;51.634;5.566;2023-06-22T00:07:28;14.73;;;8.75;;
62268;SDS011;56517;51.634;5.566;2023-06-22T00:08:49;15.40;;;8.50;;
62268;SDS011;56517;51.634;5.566;2023-06-22T00:10:10;11.50;;;7.82;;
62268;SDS011;56517;51.634;5.566;2023-06-22T00:11:31;13.05;;;8.48;;
62268;SDS011;56517;51.634;5.566;2023-06-22T00:12:54;9.82;;;7.50;;
62268;SDS011;56517;51.634;5.566;2023-06-22T00:14:14;16.63;;;9.23;;
62268;SDS011;56517;51.634;5.566;2023-06-22T00:15:36;11.82;;;7.70;;
62268;SDS011;56517;51.634;5.566;2023-06-22T00:16:57;11.85;;;8.20;;
62268;SDS011;56517;51.634;5.566;2023-06-22T00:18:19;14.05;;;9.18;;
62268;SDS011;56517;51.634;5.566;2023-06-22T00:19:40;17.65;;;9.57;;
62268;SDS011;56517;51.634;5.566;2023-06-22T00:21:01;9.95;;;7.68;;
62268;SDS011;56517;51.634;5.566;2023-06-22T00:22:22;14.82;;;9.80;;
62268;SDS011;56517;51.634;5.566;2023-06-22T00:23:48;13.38;;;8.85;;
62268;SDS011;56517;51.634;5.566;2023-06-22T00:25:09;11.77;;;8.30;;
62268;SDS011;56517;51.634;5.566;2023-06-22T00:26:30;12.68;;;8.77;;
62268;SDS011;56517;51.634;5.566;2023-06-22T00:27:51;13.93;;;8.50;;
62268;SDS011;56517;51.634;5.566;2023-06-22T00:29:12;12.02;;;8.32;;
62268;SDS011;56517;51.634;5.566;2023-06-22T00:30:33;12.63;;;8.73;;
62268;SDS011;56517;51.634;5.566;2023-06-22T00:31:54;12.00;;;8.40;;
62268;SDS011;56517;51.634;5.566;2023-06-22T00:33:15;13.40;;;9.45;;
62268;SDS011;56517;51.634;5.566;2023-06-22T00:34:36;12.05;;;8.55;;
62268;SDS011;56517;51.634;5.566;2023-06-22T00:35:57;12.13;;;9.05;;
62268;SDS011;56517;51.634;5.566;2023-06-22T00:37:18;13.15;;;8.65;;
62268;SDS011;56517;51.634;5.566;2023-06-22T00:38:39;16.35;;;8.93;;
62268;SDS011;56517;51.634;5.566;2023-06-22T00:40:01;12.50;;;8.77;;
62268;SDS011;56517;51.634;5.566;2023-06-22T00:41:22;13.43;;;8.95;;
62268;SDS011;56517;51.634;5.566;2023-06-22T00:42:43;14.95;;;8.65;;
62268;SDS011;56517;51.634;5.566;2023-06-22T00:44:04;21.45;;;10.63;;
62268;SDS011;56517;51.634;5.566;2023-06-22T00:45:25;15.25;;;9.35;;
62268;SDS011;56517;51.634;5.566;2023-06-22T00:46:47;13.75;;;9.30;;
62268;SDS011;56517;51.634;5.566;2023-06-22T00:48:08;15.23;;;10.05;;
62268;SDS011;56517;51.634;5.566;2023-06-22T00:49:29;12.55;;;9.07;;
62268;SDS011;56517;51.634;5.566;2023-06-22T00:50:50;14.93;;;9.13;;
62268;SDS011;56517;51.634;5.566;2023-06-22T00:52:11;14.15;;;9.32;;
62268;SDS011;56517;51.634;5.566;2023-06-22T00:53:41;13.73;;;8.68;;
62268;SDS011;56517;51.634;5.566;2023-06-22T00:55:04;13.63;;;9.82;;
62268;SDS011;56517;51.634;5.566;2023-06-22T00:56:25;12.23;;;8.90;;
62268;SDS011;56517;51.634;5.566;2023-06-22T00:57:46;13.13;;;8.32;;
62268;SDS011;56517;51.634;5.566;2023-06-22T00:59:08;14.40;;;9.10;;
62268;SDS011;56517;51.634;5.566;2023-06-22T01:00:32;15.18;;;9.90;;
62268;SDS011;56517;51.634;5.566;2023-06-22T01:01:54;16.73;;;9.70;;
62268;SDS011;56517;51.634;5.566;2023-06-22T01:03:15;14.05;;;9.00;;
62268;SDS011;56517;51.634;5.566;2023-06-22T01:06:00;14.40;;;10.07;;
62268;SDS011;56517;51.634;5.566;2023-06-22T01:07:35;13.63;;;9.43;;
62268;SDS011;56517;51.634;5.566;2023-06-22T01:09:06;12.63;;;9.55;;
62268;SDS011;56517;51.634;5.566;2023-06-22T01:12:08;12.85;;;9.07;;
62268;SDS011;56517;51.634;5.566;2023-06-22T01:13:47;16.52;;;9.90;;
62268;SDS011;56517;51.634;5.566;2023-06-22T01:15:13;12.80;;;8.85;;
62268;SDS011;56517;51.634;5.566;2023-06-22T01:16:37;18.00;;;10.02;;
62268;SDS011;56517;51.634;5.566;2023-06-22T01:18:00;25.13;;;11.65;;
62268;SDS011;56517;51.634;5.566;2023-06-22T01:19:28;15.70;;;10.25;;
62268;SDS011;56517;51.634;5.566;2023-06-22T01:20:52;13.65;;;9.73;;
62268;SDS011;56517;51.634;5.566;2023-06-22T01:22:17;14.27;;;9.43;;
62268;SDS011;56517;51.634;5.566;2023-06-22T01:25:26;14.70;;;9.52;;
62268;SDS011;56517;51.634;5.566;2023-06-22T01:29:52;19.00;;;10.90;;
62268;SDS011;56517;51.634;5.566;2023-06-22T01:31:22;16.92;;;10.82;;
62268;SDS011;56517;51.634;5.566;2023-06-22T01:32:44;19.60;;;11.48;;
62268;SDS011;56517;51.634;5.566;2023-06-22T01:34:06;14.93;;;10.45;;
62268;SDS011;56517;51.634;5.566;2023-06-22T01:35:28;15.27;;;10.27;;
62268;SDS011;56517;51.634;5.566;2023-06-22T01:36:49;15.05;;;10.35;;
62268;SDS011;56517;51.634;5.566;2023-06-22T01:38:10;15.40;;;10.55;;
62268;SDS011;56517;51.634;5.566;2023-06-22T01:39:31;14.68;;;10.32;;
62268;SDS011;56517;51.634;5.566;2023-06-22T01:40:52;19.67;;;11.15;;
62268;SDS011;56517;51.634;5.566;2023-06-22T01:42:14;16.70;;;10.23;;
62268;SDS011;56517;51.634;5.566;2023-06-22T01:43:34;14.60;;;9.98;;
62268;SDS011;56517;51.634;5.566;2023-06-22T01:44:56;15.63;;;9.90;;
62268;SDS011;56517;51.634;5.566;2023-06-22T01:46:17;24.53;;;12.60;;
62268;SDS011;56517;51.634;5.566;2023-06-22T01:47:40;18.10;;;11.63;;
62268;SDS011;56517;51.634;5.566;2023-06-22T01:49:02;16.52;;;11.88;;
62268;SDS011;56517;51.634;5.566;2023-06-22T01:50:23;17.98;;;11.23;;
62268;SDS011;56517;51.634;5.566;2023-06-22T01:51:44;19.70;;;11.87;;
62268;SDS011;56517;51.634;5.566;2023-06-22T01:53:05;21.58;;;11.52;;
62268;SDS011;56517;51.634;5.566;2023-06-22T01:54:27;18.55;;;11.25;;
62268;SDS011;56517;51.634;5.566;2023-06-22T01:55:48;20.35;;;11.57;;
62268;SDS011;56517;51.634;5.566;2023-06-22T01:57:09;19.42;;;11.85;;
62268;SDS011;56517;51.634;5.566;2023-06-22T01:58:31;18.08;;;12.00;;
62268;SDS011;56517;51.634;5.566;2023-06-22T01:59:57;26.63;;;11.82;;
62268;SDS011;56517;51.634;5.566;2023-06-22T02:01:30;20.85;;;12.20;;
62268;SDS011;56517;51.634;5.566;2023-06-22T02:04:20;22.20;;;12.02;;
62268;SDS011;56517;51.634;5.566;2023-06-22T02:05:55;18.67;;;11.35;;
62268;SDS011;56517;51.634;5.566;2023-06-22T02:07:17;19.63;;;11.70;;
62268;SDS011;56517;51.634;5.566;2023-06-22T02:08:49;20.27;;;12.43;;
62268;SDS011;56517;51.634;5.566;2023-06-22T02:10:11;24.58;;;13.00;;
62268;SDS011;56517;51.634;5.566;2023-06-22T02:11:34;17.25;;;11.40;;
62268;SDS011;56517;51.634;5.566;2023-06-22T02:12:56;22.13;;;12.30;;
62268;SDS011;56517;51.634;5.566;2023-06-22T02:14:18;17.83;;;11.38;;
62268;SDS011;56517;51.634;5.566;2023-06-22T02:15:39;18.35;;;12.13;;
62268;SDS011;56517;51.634;5.566;2023-06-22T02:17:00;18.77;;;12.43;;
62268;SDS011;56517;51.634;5.566;2023-06-22T02:18:21;22.48;;;12.80;;
62268;SDS011;56517;51.634;5.566;2023-06-22T02:19:42;18.75;;;12.15;;
62268;SDS011;56517;51.634;5.566;2023-06-22T02:21:03;17.98;;;11.80;;
62268;SDS011;56517;51.634;5.566;2023-06-22T02:22:24;21.15;;;12.35;;
62268;SDS011;56517;51.634;5.566;2023-06-22T02:23:44;23.67;;;12.73;;
62268;SDS011;56517;51.634;5.566;2023-06-22T02:25:05;16.10;;;11.95;;
62268;SDS011;56517;51.634;5.566;2023-06-22T02:26:26;21.20;;;12.45;;
62268;SDS011;56517;51.634;5.566;2023-06-22T02:27:48;19.90;;;11.97;;
62268;SDS011;56517;51.634;5.566;2023-06-22T02:29:08;18.30;;;11.77;;
62268;SDS011;56517;51.634;5.566;2023-06-22T02:30:29;18.15;;;11.82;;
62268;SDS011;56517;51.634;5.566;2023-06-22T02:31:50;22.35;;;13.20;;
62268;SDS011;56517;51.634;5.566;2023-06-22T02:33:11;18.88;;;11.75;;
62268;SDS011;56517;51.634;5.566;2023-06-22T02:34:32;21.13;;;12.43;;
62268;SDS011;56517;51.634;5.566;2023-06-22T02:35:54;18.90;;;12.35;;
62268;SDS011;56517;51.634;5.566;2023-06-22T02:37:15;17.58;;;12.45;;
62268;SDS011;56517;51.634;5.566;2023-06-22T02:38:36;20.67;;;12.20;;
62268;SDS011;56517;51.634;5.566;2023-06-22T02:39:57;22.42;;;12.20;;
62268;SDS011;56517;51.634;5.566;2023-06-22T02:41:18;21.13;;;12.68;;
62268;SDS011;56517;51.634;5.566;2023-06-22T02:42:39;20.48;;;11.35;;
62268;SDS011;56517;51.634;5.566;2023-06-22T02:44:00;17.80;;;11.93;;
62268;SDS011;56517;51.634;5.566;2023-06-22T02:45:21;22.15;;;12.82;;
62268;SDS011;56517;51.634;5.566;2023-06-22T02:46:42;21.75;;;11.88;;
62268;SDS011;56517;51.634;5.566;2023-06-22T02:48:02;20.15;;;12.45;;
62268;SDS011;56517;51.634;5.566;2023-06-22T02:49:24;24.08;;;13.23;;
62268;SDS011;56517;51.634;5.566;2023-06-22T02:50:44;33.50;;;15.20;;
62268;SDS011;56517;51.634;5.566;2023-06-22T02:52:05;22.33;;;12.50;;
62268;SDS011;56517;51.634;5.566;2023-06-22T02:53:26;24.70;;;12.73;;
62268;SDS011;56517;51.634;5.566;2023-06-22T02:54:47;17.23;;;11.98;;
62268;SDS011;56517;51.634;5.566;2023-06-22T02:56:08;21.67;;;13.40;;
62268;SDS011;56517;51.634;5.566;2023-06-22T02:57:29;19.23;;;12.43;;
62268;SDS011;56517;51.634;5.566;2023-06-22T02:58:53;20.27;;;13.02;;
62268;SDS011;56517;51.634;5.566;2023-06-22T03:00:14;18.13;;;11.23;;
62268;SDS011;56517;51.634;5.566;2023-06-22T03:01:38;17.85;;;12.38;;
62268;SDS011;56517;51.634;5.566;2023-06-22T03:03:00;19.25;;;11.95;;
62268;SDS011;56517;51.634;5.566;2023-06-22T03:04:21;23.92;;;11.90;;
62268;SDS011;56517;51.634;5.566;2023-06-22T03:05:42;19.00;;;12.07;;
62268;SDS011;56517;51.634;5.566;2023-06-22T03:07:03;21.40;;;11.90;;
62268;SDS011;56517;51.634;5.566;2023-06-22T03:08:24;19.75;;;12.77;;
62268;SDS011;56517;51.634;5.566;2023-06-22T03:09:45;20.60;;;11.60;;
62268;SDS011;56517;51.634;5.566;2023-06-22T03:11:06;17.30;;;11.57;;
62268;SDS011;56517;51.634;5.566;2023-06-22T03:12:26;18.60;;;12.70;;
62268;SDS011;56517;51.634;5.566;2023-06-22T03:13:47;19.20;;;12.32;;
62268;SDS011;56517;51.634;5.566;2023-06-22T03:15:09;20.60;;;12.70;;
62268;SDS011;56517;51.634;5.566;2023-06-22T03:17:51;19.58;;;12.75;;
62268;SDS011;56517;51.634;5.566;2023-06-22T03:19:12;22.65;;;13.10;;
62268;SDS011;56517;51.634;5.566;2023-06-22T03:20:34;19.00;;;12.50;;
62268;SDS011;56517;51.634;5.566;2023-06-22T03:21:55;21.80;;;11.75;;
62268;SDS011;56517;51.634;5.566;2023-06-22T03:23:16;19.60;;;12.75;;
62268;SDS011;56517;51.634;5.566;2023-06-22T03:24:37;20.50;;;12.95;;
62268;SDS011;56517;51.634;5.566;2023-06-22T03:25:59;22.38;;;12.77;;
62268;SDS011;56517;51.634;5.566;2023-06-22T03:27:20;21.05;;;12.45;;
62268;SDS011;56517;51.634;5.566;2023-06-22T03:28:42;21.20;;;12.13;;
62268;SDS011;56517;51.634;5.566;2023-06-22T03:30:03;17.55;;;11.65;;
62268;SDS011;56517;51.634;5.566;2023-06-22T03:31:24;23.60;;;12.93;;
62268;SDS011;56517;51.634;5.566;2023-06-22T03:32:44;21.10;;;12.75;;
62268;SDS011;56517;51.634;5.566;2023-06-22T03:34:07;22.25;;;12.80;;
62268;SDS011;56517;51.634;5.566;2023-06-22T03:35:28;19.77;;;12.75;;
62268;SDS011;56517;51.634;5.566;2023-06-22T03:36:49;17.55;;;11.98;;
62268;SDS011;56517;51.634;5.566;2023-06-22T03:38:09;24.83;;;13.52;;
62268;SDS011;56517;51.634;5.566;2023-06-22T03:39:31;22.13;;;13.35;;
62268;SDS011;56517;51.634;5.566;2023-06-22T03:40:52;20.13;;;12.55;;
62268;SDS011;56517;51.634;5.566;2023-06-22T03:42:13;20.35;;;12.73;;
62268;SDS011;56517;51.634;5.566;2023-06-22T03:43:34;20.02;;;12.55;;
62268;SDS011;56517;51.634;5.566;2023-06-22T03:44:55;21.13;;;11.55;;
62268;SDS011;56517;51.634;5.566;2023-06-22T03:46:16;22.67;;;13.40;;
62268;SDS011;56517;51.634;5.566;2023-06-22T03:47:36;21.95;;;12.95;;
62268;SDS011;56517;51.634;5.566;2023-06-22T03:48:57;25.13;;;13.85;;
62268;SDS011;56517;51.634;5.566;2023-06-22T03:50:18;19.83;;;12.57;;
62268;SDS011;56517;51.634;5.566;2023-06-22T03:53:01;20.98;;;13.13;;
62268;SDS011;56517;51.634;5.566;2023-06-22T03:54:22;24.27;;;12.90;;
62268;SDS011;56517;51.634;5.566;2023-06-22T03:55:50;21.05;;;12.10;;
62268;SDS011;56517;51.634;5.566;2023-06-22T03:57:11;16.70;;;12.00;;
62268;SDS011;56517;51.634;5.566;2023-06-22T03:58:32;19.25;;;12.30;;
62268;SDS011;56517;51.634;5.566;2023-06-22T03:59:56;22.83;;;14.38;;
62268;SDS011;56517;51.634;5.566;2023-06-22T04:01:17;20.90;;;12.80;;
62268;SDS011;56517;51.634;5.566;2023-06-22T04:02:38;22.88;;;12.80;;
62268;SDS011;56517;51.634;5.566;2023-06-22T04:03:58;22.13;;;14.35;;
62268;SDS011;56517;51.634;5.566;2023-06-22T04:05:19;21.20;;;13.10;;
62268;SDS011;56517;51.634;5.566;2023-06-22T04:06:40;19.88;;;12.65;;
62268;SDS011;56517;51.634;5.566;2023-06-22T04:08:01;20.38;;;13.38;;
62268;SDS011;56517;51.634;5.566;2023-06-22T04:09:22;21.17;;;13.90;;
62268;SDS011;56517;51.634;5.566;2023-06-22T04:10:43;23.15;;;14.05;;
62268;SDS011;56517;51.634;5.566;2023-06-22T04:12:04;24.95;;;14.40;;
62268;SDS011;56517;51.634;5.566;2023-06-22T04:13:25;29.17;;;15.40;;
62268;SDS011;56517;51.634;5.566;2023-06-22T04:14:46;21.48;;;12.85;;
62268;SDS011;56517;51.634;5.566;2023-06-22T04:16:07;29.73;;;14.90;;
62268;SDS011;56517;51.634;5.566;2023-06-22T04:17:28;22.52;;;14.23;;
62268;SDS011;56517;51.634;5.566;2023-06-22T04:18:48;22.60;;;12.68;;
62268;SDS011;56517;51.634;5.566;2023-06-22T04:20:09;21.92;;;13.15;;
62268;SDS011;56517;51.634;5.566;2023-06-22T04:21:31;25.17;;;13.23;;
62268;SDS011;56517;51.634;5.566;2023-06-22T04:22:52;23.92;;;13.52;;
62268;SDS011;56517;51.634;5.566;2023-06-22T04:24:13;20.63;;;13.32;;
62268;SDS011;56517;51.634;5.566;2023-06-22T04:25:34;22.52;;;13.57;;
62268;SDS011;56517;51.634;5.566;2023-06-22T04:26:55;27.55;;;13.98;;
62268;SDS011;56517;51.634;5.566;2023-06-22T04:28:16;23.02;;;13.07;;
62268;SDS011;56517;51.634;5.566;2023-06-22T04:29:37;22.05;;;14.15;;
62268;SDS011;56517;51.634;5.566;2023-06-22T04:30:58;26.42;;;15.27;;
62268;SDS011;56517;51.634;5.566;2023-06-22T04:32:22;23.98;;;14.30;;
62268;SDS011;56517;51.634;5.566;2023-06-22T04:33:43;30.25;;;15.45;;
62268;SDS011;56517;51.634;5.566;2023-06-22T04:35:04;32.35;;;15.80;;
62268;SDS011;56517;51.634;5.566;2023-06-22T04:36:27;21.75;;;14.38;;
62268;SDS011;56517;51.634;5.566;2023-06-22T04:37:52;23.45;;;14.30;;
62268;SDS011;56517;51.634;5.566;2023-06-22T04:39:15;22.55;;;13.05;;
62268;SDS011;56517;51.634;5.566;2023-06-22T04:40:36;39.03;;;17.35;;
62268;SDS011;56517;51.634;5.566;2023-06-22T04:41:57;22.95;;;13.93;;
62268;SDS011;56517;51.634;5.566;2023-06-22T04:43:21;31.20;;;15.23;;
62268;SDS011;56517;51.634;5.566;2023-06-22T04:44:42;23.77;;;14.18;;
62268;SDS011;56517;51.634;5.566;2023-06-22T04:46:03;21.88;;;14.18;;
62268;SDS011;56517;51.634;5.566;2023-06-22T04:47:24;29.17;;;15.00;;
62268;SDS011;56517;51.634;5.566;2023-06-22T04:48:45;25.50;;;14.27;;
62268;SDS011;56517;51.634;5.566;2023-06-22T04:50:06;21.55;;;13.50;;
62268;SDS011;56517;51.634;5.566;2023-06-22T04:51:27;22.00;;;13.60;;
62268;SDS011;56517;51.634;5.566;2023-06-22T04:52:51;23.95;;;15.52;;
62268;SDS011;56517;51.634;5.566;2023-06-22T04:54:12;29.13;;;14.90;;
62268;SDS011;56517;51.634;5.566;2023-06-22T04:55:33;29.83;;;15.07;;
62268;SDS011;56517;51.634;5.566;2023-06-22T04:56:54;28.65;;;15.82;;
62268;SDS011;56517;51.634;5.566;2023-06-22T04:58:17;29.23;;;15.40;;
62268;SDS011;56517;51.634;5.566;2023-06-22T04:59:40;24.88;;;14.77;;
62268;SDS011;56517;51.634;5.566;2023-06-22T05:01:02;26.40;;;14.30;;
62268;SDS011;56517;51.634;5.566;2023-06-22T05:02:24;25.60;;;15.23;;
62268;SDS011;56517;51.634;5.566;2023-06-22T05:03:48;26.98;;;15.77;;
62268;SDS011;56517;51.634;5.566;2023-06-22T05:05:09;28.75;;;16.50;;
62268;SDS011;56517;51.634;5.566;2023-06-22T05:06:33;30.35;;;16.40;;
62268;SDS011;56517;51.634;5.566;2023-06-22T05:07:56;24.13;;;15.07;;
62268;SDS011;56517;51.634;5.566;2023-06-22T05:09:20;24.08;;;14.45;;
62268;SDS011;56517;51.634;5.566;2023-06-22T05:10:41;28.20;;;15.40;;
62268;SDS011;56517;51.634;5.566;2023-06-22T05:12:02;23.67;;;15.25;;
62268;SDS011;56517;51.634;5.566;2023-06-22T05:13:23;26.55;;;16.17;;
62268;SDS011;56517;51.634;5.566;2023-06-22T05:14:47;24.88;;;15.02;;
62268;SDS011;56517;51.634;5.566;2023-06-22T05:16:07;23.02;;;14.77;;
62268;SDS011;56517;51.634;5.566;2023-06-22T05:17:28;28.50;;;15.73;;
62268;SDS011;56517;51.634;5.566;2023-06-22T05:18:50;24.10;;;15.13;;
62268;SDS011;56517;51.634;5.566;2023-06-22T05:21:32;28.75;;;16.52;;
62268;SDS011;56517;51.634;5.566;2023-06-22T05:22:53;25.77;;;15.65;;
62268;SDS011;56517;51.634;5.566;2023-06-22T05:24:14;21.65;;;14.63;;
62268;SDS011;56517;51.634;5.566;2023-06-22T05:25:35;26.08;;;16.13;;
62268;SDS011;56517;51.634;5.566;2023-06-22T05:26:56;30.67;;;16.85;;
62268;SDS011;56517;51.634;5.566;2023-06-22T05:28:17;26.60;;;16.40;;
62268;SDS011;56517;51.634;5.566;2023-06-22T05:29:43;23.88;;;14.75;;
62268;SDS011;56517;51.634;5.566;2023-06-22T05:31:04;33.95;;;18.27;;
62268;SDS011;56517;51.634;5.566;2023-06-22T05:32:25;27.88;;;15.18;;
62268;SDS011;56517;51.634;5.566;2023-06-22T05:33:46;24.52;;;14.45;;
62268;SDS011;56517;51.634;5.566;2023-06-22T05:35:07;27.67;;;15.75;;
62268;SDS011;56517;51.634;5.566;2023-06-22T05:36:28;25.70;;;15.93;;
62268;SDS011;56517;51.634;5.566;2023-06-22T05:37:49;24.85;;;15.43;;
62268;SDS011;56517;51.634;5.566;2023-06-22T05:39:11;23.38;;;13.85;;
62268;SDS011;56517;51.634;5.566;2023-06-22T05:40:33;25.77;;;16.08;;
62268;SDS011;56517;51.634;5.566;2023-06-22T05:41:54;38.45;;;18.58;;
62268;SDS011;56517;51.634;5.566;2023-06-22T05:43:15;23.05;;;14.90;;
62268;SDS011;56517;51.634;5.566;2023-06-22T05:44:36;27.38;;;16.25;;
62268;SDS011;56517;51.634;5.566;2023-06-22T05:45:58;26.73;;;15.63;;
62268;SDS011;56517;51.634;5.566;2023-06-22T05:47:19;23.57;;;15.73;;
62268;SDS011;56517;51.634;5.566;2023-06-22T05:48:40;26.48;;;17.33;;
62268;SDS011;56517;51.634;5.566;2023-06-22T05:50:01;29.90;;;16.65;;
62268;SDS011;56517;51.634;5.566;2023-06-22T05:51:27;25.83;;;16.77;;
62268;SDS011;56517;51.634;5.566;2023-06-22T05:52:47;26.55;;;16.80;;
62268;SDS011;56517;51.634;5.566;2023-06-22T05:54:08;24.50;;;16.10;;
62268;SDS011;56517;51.634;5.566;2023-06-22T05:55:29;31.75;;;16.80;;
62268;SDS011;56517;51.634;5.566;2023-06-22T05:56:50;23.23;;;16.25;;
62268;SDS011;56517;51.634;5.566;2023-06-22T05:58:11;26.42;;;16.40;;
62268;SDS011;56517;51.634;5.566;2023-06-22T05:59:33;29.30;;;17.27;;
62268;SDS011;56517;51.634;5.566;2023-06-22T06:00:54;26.38;;;16.42;;
62268;SDS011;56517;51.634;5.566;2023-06-22T06:02:15;25.92;;;16.38;;
62268;SDS011;56517;51.634;5.566;2023-06-22T06:03:36;29.88;;;17.55;;
62268;SDS011;56517;51.634;5.566;2023-06-22T06:05:01;31.38;;;16.77;;
62268;SDS011;56517;51.634;5.566;2023-06-22T06:06:23;31.52;;;18.08;;
62268;SDS011;56517;51.634;5.566;2023-06-22T06:07:49;26.90;;;16.55;;
62268;SDS011;56517;51.634;5.566;2023-06-22T06:09:10;30.63;;;17.92;;
62268;SDS011;56517;51.634;5.566;2023-06-22T06:10:32;26.17;;;16.85;;
62268;SDS011;56517;51.634;5.566;2023-06-22T06:11:53;37.92;;;17.23;;
62268;SDS011;56517;51.634;5.566;2023-06-22T06:13:14;49.05;;;19.42;;
62268;SDS011;56517;51.634;5.566;2023-06-22T06:14:35;80.03;;;23.77;;
62268;SDS011;56517;51.634;5.566;2023-06-22T06:15:56;102.72;;;26.05;;
62268;SDS011;56517;51.634;5.566;2023-06-22T06:17:17;62.13;;;19.20;;
62268;SDS011;56517;51.634;5.566;2023-06-22T06:18:38;35.50;;;18.27;;
62268;SDS011;56517;51.634;5.566;2023-06-22T06:19:59;29.88;;;16.20;;
62268;SDS011;56517;51.634;5.566;2023-06-22T06:21:21;26.52;;;16.88;;
62268;SDS011;56517;51.634;5.566;2023-06-22T06:22:42;26.63;;;18.17;;
62268;SDS011;56517;51.634;5.566;2023-06-22T06:24:03;29.08;;;18.02;;
62268;SDS011;56517;51.634;5.566;2023-06-22T06:25:24;28.30;;;17.30;;
62268;SDS011;56517;51.634;5.566;2023-06-22T06:26:45;25.77;;;17.20;;
62268;SDS011;56517;51.634;5.566;2023-06-22T06:28:06;28.90;;;17.13;;
62268;SDS011;56517;51.634;5.566;2023-06-22T06:29:27;32.07;;;18.13;;
62268;SDS011;56517;51.634;5.566;2023-06-22T06:30:48;23.85;;;16.85;;
62268;SDS011;56517;51.634;5.566;2023-06-22T06:32:09;25.88;;;16.67;;
62268;SDS011;56517;51.634;5.566;2023-06-22T06:33:30;27.45;;;18.40;;
62268;SDS011;56517;51.634;5.566;2023-06-22T06:34:52;29.92;;;18.30;;
62268;SDS011;56517;51.634;5.566;2023-06-22T06:36:13;27.45;;;17.92;;
62268;SDS011;56517;51.634;5.566;2023-06-22T06:37:37;30.45;;;17.52;;
62268;SDS011;56517;51.634;5.566;2023-06-22T06:38:58;31.08;;;17.65;;
62268;SDS011;56517;51.634;5.566;2023-06-22T06:40:19;50.53;;;20.63;;
62268;SDS011;56517;51.634;5.566;2023-06-22T06:41:40;33.65;;;19.52;;
62268;SDS011;56517;51.634;5.566;2023-06-22T06:43:01;27.33;;;17.10;;
62268;SDS011;56517;51.634;5.566;2023-06-22T06:44:22;44.40;;;20.83;;
62268;SDS011;56517;51.634;5.566;2023-06-22T06:45:43;30.90;;;17.05;;
62268;SDS011;56517;51.634;5.566;2023-06-22T06:47:04;32.90;;;17.35;;
62268;SDS011;56517;51.634;5.566;2023-06-22T06:48:25;30.80;;;17.67;;
62268;SDS011;56517;51.634;5.566;2023-06-22T06:49:46;33.15;;;18.30;;
62268;SDS011;56517;51.634;5.566;2023-06-22T06:51:06;30.23;;;19.20;;
62268;SDS011;56517;51.634;5.566;2023-06-22T06:52:30;27.63;;;17.10;;
62268;SDS011;56517;51.634;5.566;2023-06-22T06:53:50;23.90;;;16.75;;
62268;SDS011;56517;51.634;5.566;2023-06-22T06:55:11;23.65;;;16.95;;
62268;SDS011;56517;51.634;5.566;2023-06-22T06:56:32;26.95;;;17.27;;
62268;SDS011;56517;51.634;5.566;2023-06-22T06:57:54;25.73;;;16.40;;
62268;SDS011;56517;51.634;5.566;2023-06-22T06:59:15;26.17;;;17.63;;
62268;SDS011;56517;51.634;5.566;2023-06-22T07:00:36;26.10;;;18.10;;
62268;SDS011;56517;51.634;5.566;2023-06-22T07:01:57;27.40;;;17.80;;
62268;SDS011;56517;51.634;5.566;2023-06-22T07:03:18;26.48;;;17.92;;
62268;SDS011;56517;51.634;5.566;2023-06-22T07:04:39;26.67;;;18.02;;
62268;SDS011;56517;51.634;5.566;2023-06-22T07:06:00;28.70;;;20.08;;
62268;SDS011;56517;51.634;5.566;2023-06-22T07:07:21;26.67;;;17.73;;
62268;SDS011;56517;51.634;5.566;2023-06-22T07:08:42;24.90;;;17.20;;
62268;SDS011;56517;51.634;5.566;2023-06-22T07:10:04;28.75;;;18.83;;
62268;SDS011;56517;51.634;5.566;2023-06-22T07:12:46;28.38;;;17.02;;
62268;SDS011;56517;51.634;5.566;2023-06-22T07:14:07;25.67;;;17.33;;
62268;SDS011;56517;51.634;5.566;2023-06-22T07:15:28;26.05;;;17.70;;
62268;SDS011;56517;51.634;5.566;2023-06-22T07:16:49;28.55;;;18.00;;
62268;SDS011;56517;51.634;5.566;2023-06-22T07:18:09;36.75;;;19.33;;
62268;SDS011;56517;51.634;5.566;2023-06-22T07:19:32;26.60;;;18.02;;
62268;SDS011;56517;51.634;5.566;2023-06-22T07:20:53;27.00;;;17.33;;
62268;SDS011;56517;51.634;5.566;2023-06-22T07:22:14;27.52;;;17.85;;
62268;SDS011;56517;51.634;5.566;2023-06-22T07:23:35;30.75;;;19.25;;
62268;SDS011;56517;51.634;5.566;2023-06-22T07:24:56;24.60;;;17.60;;
62268;SDS011;56517;51.634;5.566;2023-06-22T07:26:16;28.40;;;18.60;;
62268;SDS011;56517;51.634;5.566;2023-06-22T07:27:38;27.65;;;17.95;;
62268;SDS011;56517;51.634;5.566;2023-06-22T07:29:00;26.17;;;17.48;;
62268;SDS011;56517;51.634;5.566;2023-06-22T07:30:21;25.08;;;17.63;;
62268;SDS011;56517;51.634;5.566;2023-06-22T07:31:42;25.77;;;16.90;;
62268;SDS011;56517;51.634;5.566;2023-06-22T07:33:03;26.05;;;18.02;;
62268;SDS011;56517;51.634;5.566;2023-06-22T07:34:24;27.08;;;17.70;;
62268;SDS011;56517;51.634;5.566;2023-06-22T07:35:45;24.40;;;17.92;;
62268;SDS011;56517;51.634;5.566;2023-06-22T07:37:08;24.70;;;17.40;;
62268;SDS011;56517;51.634;5.566;2023-06-22T07:38:29;25.15;;;18.73;;
62268;SDS011;56517;51.634;5.566;2023-06-22T07:39:50;24.90;;;17.00;;
62268;SDS011;56517;51.634;5.566;2023-06-22T07:41:14;25.95;;;18.60;;
62268;SDS011;56517;51.634;5.566;2023-06-22T07:42:35;26.98;;;17.65;;
62268;SDS011;56517;51.634;5.566;2023-06-22T07:43:56;23.05;;;16.33;;
62268;SDS011;56517;51.634;5.566;2023-06-22T07:45:17;25.80;;;16.87;;
62268;SDS011;56517;51.634;5.566;2023-06-22T07:46:38;28.63;;;17.48;;
62268;SDS011;56517;51.634;5.566;2023-06-22T07:47:59;26.15;;;16.90;;
62268;SDS011;56517;51.634;5.566;2023-06-22T07:49:20;26.98;;;17.85;;
62268;SDS011;56517;51.634;5.566;2023-06-22T07:50:41;32.72;;;18.10;;
62268;SDS011;56517;51.634;5.566;2023-06-22T07:52:02;34.05;;;20.92;;
62268;SDS011;56517;51.634;5.566;2023-06-22T07:53:23;27.30;;;18.20;;
62268;SDS011;56517;51.634;5.566;2023-06-22T07:54:44;25.42;;;17.63;;
62268;SDS011;56517;51.634;5.566;2023-06-22T07:56:04;26.52;;;17.40;;
62268;SDS011;56517;51.634;5.566;2023-06-22T07:57:27;28.25;;;17.55;;
62268;SDS011;56517;51.634;5.566;2023-06-22T07:58:54;25.52;;;16.52;;
62268;SDS011;56517;51.634;5.566;2023-06-22T08:00:15;23.92;;;16.05;;
62268;SDS011;56517;51.634;5.566;2023-06-22T08:01:36;25.60;;;15.23;;
62268;SDS011;56517;51.634;5.566;2023-06-22T08:02:57;22.40;;;15.10;;
62268;SDS011;56517;51.634;5.566;2023-06-22T08:04:18;23.83;;;15.57;;
62268;SDS011;56517;51.634;5.566;2023-06-22T08:05:39;22.15;;;15.73;;
62268;SDS011;56517;51.634;5.566;2023-06-22T08:07:00;21.30;;;14.88;;
62268;SDS011;56517;51.634;5.566;2023-06-22T08:08:21;20.27;;;15.32;;
62268;SDS011;56517;51.634;5.566;2023-06-22T08:09:45;25.08;;;15.48;;
62268;SDS011;56517;51.634;5.566;2023-06-22T08:11:06;26.25;;;15.60;;
62268;SDS011;56517;51.634;5.566;2023-06-22T08:12:27;27.92;;;16.13;;
62268;SDS011;56517;51.634;5.566;2023-06-22T08:13:48;27.25;;;14.65;;